DW8016 Weather Reports


Display with metric or nautical units.
time (UTC)temp
F
wind
direction
speed
MPH
gust
MPH
rain 1hr
in
rain 24hr
in
rain mn
in
humidity
%
barometer
mb
20221126230243 49 242 0.0 1.0 0.00 0.00 0.00 59 1017.2
20221126225212 50 242 0.0 0.0 0.00 0.00 0.00 57 1017.1
20221126224237 50 242 0.0 0.0 0.00 0.00 0.00 56 1017.2
20221126223222 51 242 0.0 0.0 0.00 0.00 0.00 54 1017.3
20221126222207 52 242 0.0 0.0 0.00 0.00 0.00 52 1017.4
20221126221214 54 242 0.0 0.0 0.00 0.00 0.00 49 1017.3
20221126220237 55 242 0.0 0.0 0.00 0.00 0.00 45 1017.3
20221126215211 56 242 0.0 0.0 0.00 0.00 0.00 44 1017.4
20221126214211 57 242 0.0 0.0 0.00 0.00 0.00 41 1017.6
20221126213234 58 242 0.0 0.0 0.00 0.00 0.00 40 1017.7
20221126211137 59 261 0.0 2.0 0.00 0.00 0.00 37 1017.5
20221126210155 59 257 1.0 3.0 0.00 0.00 0.00 37 1017.3
20221126205125 59 292 1.0 3.0 0.00 0.00 0.00 36 1017.3
20221126204139 60 250 1.0 5.0 0.00 0.00 0.00 36 1017.5
20221126203139 60 300 3.0 7.0 0.00 0.00 0.00 35 1017.7
20221126202153 61 236 3.0 7.0 0.00 0.00 0.00 35 1017.9
20221126201130 61 296 2.0 9.0 0.00 0.00 0.00 35 1017.7
20221126200144 62 289 2.0 9.0 0.00 0.00 0.00 35 1017.6
20221126195132 62 242 1.0 7.0 0.00 0.00 0.00 35 1017.5
20221126194150 62 251 2.0 9.0 0.00 0.00 0.00 35 1017.8
20221126193137 62 258 2.0 9.0 0.00 0.00 0.00 36 1018.0
20221126192142 61 194 2.0 7.0 0.00 0.00 0.00 37 1018.0
20221126183834 62 234 3.0 8.0 0.00 0.00 0.00 37 1018.0
20221126182805 62 305 4.0 8.0 0.00 0.00 0.00 38 1018.1
20221126181752 62 243 2.0 7.0 0.00 0.01 0.00 38 1018.2
20221126180803 61 251 3.0 13.0 0.00 0.01 0.00 38 1018.3
20221126175747 61 252 3.0 13.0 0.00 0.01 0.00 39 1018.3
20221126174742 61 259 2.0 7.0 0.00 0.01 0.00 39 1018.5
20221126172541 60 292 4.0 13.0 0.00 0.01 0.00 37 1018.9
20221126171519 60 279 5.0 13.0 0.00 0.01 0.00 37 1019.0
20221126170514 60 290 4.0 13.0 0.00 0.01 0.00 38 1019.2
20221126165534 59 294 4.0 9.0 0.00 0.01 0.00 39 1019.5
20221126164523 59 268 3.0 10.0 0.00 0.01 0.00 41 1019.6
20221126163453 58 299 2.0 9.0 0.00 0.01 0.00 42 1020.0
20221126162421 58 344 2.0 7.0 0.00 0.01 0.00 42 1020.1
20221126161446 58 305 4.0 9.0 0.00 0.01 0.00 42 1020.1
20221126160506 57 293 3.0 9.0 0.00 0.01 0.00 44 1020.3
20221126155527 57 234 3.0 8.0 0.00 0.01 0.00 44 1020.2
20221126153418 56 303 3.0 7.0 0.00 0.01 0.00 46 1020.5
20221126152355 56 309 2.0 6.0 0.00 0.01 0.00 47 1020.8
20221126151344 54 301 1.0 5.0 0.00 0.01 0.00 50 1020.8
20221126145146 52 12 1.0 4.0 0.00 0.01 0.00 55 1020.7
20221126144206 50 309 2.0 7.0 0.00 0.01 0.00 57 1020.7
20221126143155 49 322 3.0 8.0 0.00 0.01 0.00 59 1020.7
20221126142128 48 355 1.0 9.0 0.00 0.01 0.00 61 1020.6
20221126141130 48 329 3.0 9.0 0.00 0.01 0.00 62 1020.4
20221126140120 47 311 3.0 7.0 0.00 0.01 0.00 65 1020.2
20221126135121 46 348 2.0 6.0 0.00 0.03 0.00 67 1020.2
20221126134047 45 314 3.0 6.0 0.00 0.03 0.00 70 1020.3
20221126133054 44 306 1.0 3.0 0.00 0.04 0.00 72 1020.4
20221126131003 41 309 1.0 4.0 0.00 0.04 0.00 78 1020.3
20221126130001 39 298 1.0 4.0 0.00 0.05 0.00 81 1020.3
20221126125013 38 287 0.0 2.0 0.00 0.07 0.00 84 1020.3
20221126123954 37 288 0.0 2.0 0.00 0.07 0.00 84 1020.5
20221126122933 36 288 0.0 1.0 0.00 0.07 0.00 84 1020.4
20221126121920 36 288 0.0 0.0 0.00 0.07 0.00 84 1020.3
20221126115819 36 288 0.0 0.0 0.00 0.07 0.00 84 1020.1
20221126114744 36 288 0.0 1.0 0.00 0.08 0.00 83 1020.0
20221126113756 36 295 0.0 0.0 0.00 0.08 0.00 82 1020.0
20221126112759 37 304 1.0 2.0 0.00 0.09 0.00 82 1020.1
20221126111745 37 304 0.0 1.0 0.00 0.09 0.00 83 1019.9
20221126110747 36 304 0.0 1.0 0.00 0.11 0.00 82 1019.8
20221126105757 36 304 0.0 0.0 0.00 0.13 0.00 82 1019.6
20221126104807 36 304 0.0 0.0 0.00 0.16 0.00 82 1019.5
20221126103800 36 304 0.0 0.0 0.00 0.17 0.00 82 1019.4
20221126102737 37 304 0.0 0.0 0.00 0.18 0.00 81 1019.2
20221126101756 37 304 0.0 0.0 0.00 0.18 0.00 80 1019.0
20221126100803 37 304 0.0 0.0 0.00 0.18 0.00 79 1019.0
20221126095817 38 304 0.0 0.0 0.00 0.18 0.00 78 1019.2
20221126094820 38 304 0.0 0.0 0.00 0.18 0.00 77 1019.1
20221126093808 39 304 0.0 0.0 0.00 0.18 0.00 77 1019.1
20221126092748 39 304 0.0 0.0 0.00 0.18 0.00 76 1019.2
20221126090652 40 304 0.0 0.0 0.00 0.18 0.00 73 1019.0
20221126085620 41 304 0.0 0.0 0.00 0.18 0.00 72 1019.0
20221126084611 41 304 0.0 0.0 0.00 0.18 0.00 71 1018.9
20221126082448 41 324 0.0 3.0 0.00 0.18 0.00 70 1019.0
20221126081501 42 295 0.0 2.0 0.00 0.18 0.00 69 1019.1
20221126080445 42 301 0.0 2.0 0.00 0.18 0.00 68 1019.1
20221126075458 42 310 0.0 0.0 0.00 0.18 0.00 68 1018.9
20221126074452 43 310 0.0 0.0 0.00 0.18 0.00 66 1018.9
20221126073419 43 310 0.0 0.0 0.00 0.18 0.00 65 1019.0
20221126071257 44 311 2.0 8.0 0.00 0.18 0.00 66 1018.6
20221126070306 44 302 2.0 7.0 0.00 0.18 0.00 66 1018.3
20221126065234 44 330 1.0 4.0 0.00 0.18 0.00 65 1018.1
20221126064242 44 331 1.0 4.0 0.00 0.18 0.00 65 1018.0
20221126062144 45 355 0.0 3.0 0.00 0.18 0.00 65 1017.9
20221126061153 45 318 0.0 4.0 0.00 0.18 0.00 64 1017.8
20221126060215 45 317 1.0 4.0 0.00 0.18 0.00 63 1017.9
20221126055232 46 319 0.0 3.0 0.00 0.18 0.00 63 1018.0
20221126054252 46 327 2.0 5.0 0.00 0.18 0.00 63 1017.7
20221126053254 45 315 2.0 5.0 0.00 0.18 0.00 64 1017.6
20221126052243 46 309 3.0 7.0 0.00 0.18 0.00 65 1017.6
20221126051233 46 317 3.0 7.0 0.00 0.18 0.00 65 1017.7
20221126050227 45 336 2.0 7.0 0.00 0.18 0.00 66 1017.7
20221126044007 45 332 0.0 4.0 0.00 0.18 0.18 68 1017.6
20221126042945 45 304 1.0 4.0 0.00 0.18 0.18 68 1017.4
20221126042005 45 330 0.0 2.0 0.00 0.18 0.18 68 1017.1
20221126040951 45 331 0.0 2.0 0.00 0.18 0.18 67 1017.1
20221126035920 46 331 1.0 2.0 0.00 0.18 0.18 66 1016.8
20221126034906 46 331 0.0 2.0 0.00 0.18 0.18 65 1016.6
20221126031650 47 331 2.0 6.0 0.00 0.18 0.18 63 1016.5
20221126025534 48 329 1.0 6.0 0.00 0.18 0.18 60 1016.5
20221126024509 49 342 1.0 6.0 0.00 0.18 0.18 60 1016.5
20221126023528 49 333 1.0 4.0 0.00 0.18 0.18 59 1016.4
20221126021334 49 325 3.0 10.0 0.00 0.18 0.18 58 1015.8
20221126020303 49 355 3.0 10.0 0.00 0.18 0.18 58 1015.8
20221126014040 49 273 3.0 10.0 0.00 0.18 0.18 58 1015.7
20221126013031 49 304 2.0 5.0 0.00 0.18 0.18 58 1015.8
20221126012035 49 324 2.0 4.0 0.00 0.18 0.18 57 1015.7
20221126011045 50 294 0.0 4.0 0.00 0.18 0.18 56 1015.7
20221126010049 50 321 1.0 4.0 0.00 0.18 0.18 55 1015.6
20221126005109 51 314 1.0 6.0 0.00 0.18 0.18 55 1015.5
20221126004053 51 0 2.0 7.0 0.00 0.18 0.18 54 1015.3
20221126003102 51 5 3.0 7.0 0.00 0.18 0.18 54 1015.2
20221126002123 51 315 3.0 10.0 0.00 0.18 0.18 55 1014.8
20221125234756 51 319 3.0 8.0 0.00 0.18 0.18 58 1014.1
20221125233748 51 302 3.0 6.0 0.00 0.18 0.18 58 1014.0
20221125232741 52 306 3.0 6.0 0.00 0.18 0.18 57 1013.8
20221125231802 52 344 2.0 6.0 0.00 0.18 0.18 56 1013.9